createdAt,value
2022-12-08T00:01:34.077Z,12.00
2022-12-08T00:04:04.401Z,14.90
2022-12-08T00:06:59.622Z,13.30
2022-12-08T00:09:39.395Z,11.40
2022-12-08T00:12:15.523Z,13.00
2022-12-08T00:14:46.508Z,16.50
2022-12-08T00:17:16.483Z,11.90
2022-12-08T00:19:45.465Z,11.90
2022-12-08T00:22:14.902Z,14.60
2022-12-08T00:24:45.724Z,11.50
2022-12-08T00:27:16.175Z,13.00
2022-12-08T00:29:45.631Z,13.20
2022-12-08T00:32:13.960Z,18.10
2022-12-08T00:34:42.207Z,13.40
2022-12-08T00:37:10.444Z,13.70
2022-12-08T00:39:38.451Z,15.30
2022-12-08T00:42:12.142Z,17.20
2022-12-08T00:44:41.632Z,16.60
2022-12-08T00:47:10.233Z,28.50
2022-12-08T00:49:38.618Z,31.80
2022-12-08T00:52:07.104Z,32.00
2022-12-08T00:54:35.585Z,47.20
2022-12-08T00:57:04.164Z,27.20
2022-12-08T00:59:32.639Z,21.40
2022-12-08T01:02:02.043Z,14.80
2022-12-08T01:04:30.048Z,18.00
2022-12-08T01:06:58.088Z,16.00
2022-12-08T01:09:26.130Z,14.00
2022-12-08T01:11:54.138Z,12.20
2022-12-08T01:14:22.530Z,14.00
2022-12-08T01:16:50.673Z,17.60
2022-12-08T01:19:18.988Z,21.30
2022-12-08T01:21:47.662Z,19.30
2022-12-08T01:24:21.151Z,21.00
2022-12-08T01:26:50.545Z,13.30
2022-12-08T01:29:19.093Z,14.70
2022-12-08T01:31:47.119Z,19.20
2022-12-08T01:34:15.124Z,17.10
2022-12-08T01:36:44.603Z,19.00
2022-12-08T01:39:17.882Z,28.30
2022-12-08T01:41:47.782Z,23.00
2022-12-08T01:44:15.752Z,26.10
2022-12-08T01:46:46.232Z,35.10
2022-12-08T01:49:26.539Z,25.60
2022-12-08T01:52:00.604Z,29.00
2022-12-08T01:54:34.253Z,25.70
2022-12-08T01:57:12.702Z,27.30
2022-12-08T01:59:50.270Z,31.20
2022-12-08T02:02:18.480Z,35.30
2022-12-08T02:04:46.619Z,37.80
2022-12-08T02:07:16.539Z,39.30
2022-12-08T02:09:45.404Z,37.20
2022-12-08T02:12:13.744Z,33.00
2022-12-08T02:14:41.978Z,36.70
2022-12-08T02:17:36.469Z,33.30
2022-12-08T02:20:19.731Z,32.70
2022-12-08T02:22:54.842Z,36.00
2022-12-08T02:25:44.620Z,34.00
2022-12-08T02:29:01.434Z,40.30
2022-12-08T02:32:07.495Z,37.80
2022-12-08T02:34:46.214Z,36.70
2022-12-08T02:37:29.482Z,42.30
2022-12-08T02:40:16.663Z,35.10
2022-12-08T02:42:51.291Z,33.90
2022-12-08T02:45:26.631Z,36.90
2022-12-08T02:47:55.497Z,35.60
2022-12-08T02:50:24.381Z,36.80
2022-12-08T02:52:52.848Z,36.80
2022-12-08T02:55:27.786Z,34.30
2022-12-08T02:58:35.558Z,34.70
2022-12-08T03:01:25.122Z,38.70
2022-12-08T03:04:17.077Z,40.10
2022-12-08T03:06:55.766Z,33.40
2022-12-08T03:09:38.726Z,35.70
2022-12-08T03:12:34.233Z,38.20
2022-12-08T03:15:11.117Z,28.50
2022-12-08T03:17:51.511Z,29.40
2022-12-08T03:20:23.541Z,35.40
2022-12-08T03:22:56.343Z,40.70
2022-12-08T03:25:27.014Z,38.80
2022-12-08T03:27:55.128Z,45.40
2022-12-08T03:30:23.509Z,39.00
2022-12-08T03:33:09.713Z,42.30
2022-12-08T03:35:40.807Z,36.10
2022-12-08T03:38:15.737Z,38.50
2022-12-08T03:41:04.948Z,31.60
2022-12-08T03:46:01.588Z,32.80
2022-12-08T03:48:29.978Z,34.90
2022-12-08T03:50:58.253Z,33.50
2022-12-08T03:53:26.638Z,34.20
2022-12-08T03:55:55.014Z,27.80
2022-12-08T03:58:23.081Z,34.10
2022-12-08T04:00:51.160Z,28.10
2022-12-08T04:03:19.219Z,29.60
2022-12-08T04:05:47.448Z,26.80
2022-12-08T04:08:15.601Z,26.40
2022-12-08T04:10:44.162Z,29.80
2022-12-08T04:13:12.338Z,24.90
2022-12-08T04:15:44.556Z,29.40
2022-12-08T04:18:13.268Z,27.30
2022-12-08T04:20:45.495Z,21.80
2022-12-08T04:23:13.629Z,22.40
2022-12-08T04:25:41.905Z,24.10
2022-12-08T04:28:10.082Z,24.30
2022-12-08T04:30:38.101Z,23.70
2022-12-08T04:33:06.324Z,24.90
2022-12-08T04:35:34.398Z,22.10
2022-12-08T04:38:02.989Z,24.30
2022-12-08T04:40:31.260Z,22.20
2022-12-08T04:42:59.548Z,20.10
2022-12-08T04:45:27.709Z,22.10
2022-12-08T04:47:55.896Z,22.40
2022-12-08T04:50:24.679Z,24.00
2022-12-08T04:52:53.377Z,22.00
2022-12-08T04:55:21.952Z,25.70
2022-12-08T04:57:50.517Z,26.30
2022-12-08T05:00:19.028Z,20.50
2022-12-08T05:02:47.131Z,24.70
2022-12-08T05:05:15.371Z,20.00
2022-12-08T05:07:43.587Z,22.40
2022-12-08T05:10:11.721Z,22.60
2022-12-08T05:12:39.800Z,20.80
2022-12-08T05:15:08.486Z,18.60
2022-12-08T05:17:36.549Z,23.50
2022-12-08T05:20:07.752Z,19.50
2022-12-08T05:22:35.773Z,18.60
2022-12-08T05:25:04.150Z,19.70
2022-12-08T05:27:32.314Z,21.00
2022-12-08T05:30:00.397Z,23.10
2022-12-08T05:32:28.670Z,23.60
2022-12-08T05:34:56.736Z,22.40
2022-12-08T05:37:24.917Z,23.70
2022-12-08T05:39:52.942Z,19.00
2022-12-08T05:42:24.735Z,18.90
2022-12-08T05:44:53.537Z,20.10
2022-12-08T05:47:21.813Z,19.50
2022-12-08T05:49:49.993Z,21.00
2022-12-08T05:52:20.145Z,21.00
2022-12-08T05:54:48.486Z,22.50
2022-12-08T05:57:16.993Z,27.40
2022-12-08T05:59:45.449Z,24.60
2022-12-08T06:02:14.001Z,23.30
2022-12-08T06:04:42.507Z,22.20
2022-12-08T06:07:15.927Z,23.60
2022-12-08T06:09:44.428Z,29.50
2022-12-08T06:12:12.704Z,25.20
2022-12-08T06:14:40.949Z,24.50
2022-12-08T06:17:08.956Z,29.70
2022-12-08T06:19:36.921Z,26.60
2022-12-08T06:22:05.539Z,25.20
2022-12-08T06:24:33.763Z,24.90
2022-12-08T06:27:01.816Z,21.80
2022-12-08T06:29:29.808Z,22.40
2022-12-08T06:31:57.928Z,26.00
2022-12-08T06:34:26.230Z,22.90
2022-12-08T06:36:54.227Z,32.20
2022-12-08T06:39:22.454Z,24.70
2022-12-08T06:42:09.304Z,28.30
2022-12-08T06:44:37.479Z,28.90
2022-12-08T06:47:05.858Z,31.50
2022-12-08T06:49:33.829Z,30.10
2022-12-08T06:52:01.953Z,28.50
2022-12-08T06:54:30.075Z,28.90
2022-12-08T06:56:58.598Z,32.60
2022-12-08T06:59:26.731Z,35.20
2022-12-08T07:01:54.812Z,32.90
2022-12-08T07:04:23.080Z,31.20
2022-12-08T07:06:51.263Z,34.90
2022-12-08T07:09:32.710Z,36.70
2022-12-08T07:12:02.084Z,39.60
2022-12-08T07:14:30.846Z,44.30
2022-12-08T07:16:59.383Z,33.70
2022-12-08T07:19:27.619Z,37.60
2022-12-08T07:21:56.099Z,32.50
2022-12-08T07:24:24.579Z,32.20
2022-12-08T07:26:52.553Z,33.20
2022-12-08T07:29:26.084Z,41.10
2022-12-08T07:31:54.637Z,41.40
2022-12-08T07:34:22.712Z,38.20
2022-12-08T07:36:50.982Z,39.30
2022-12-08T07:39:19.371Z,40.10
2022-12-08T07:41:47.444Z,34.40
2022-12-08T07:44:16.328Z,37.00
2022-12-08T07:46:44.468Z,39.60
2022-12-08T07:49:13.812Z,37.90
2022-12-08T07:54:12.733Z,37.40
2022-12-08T07:56:40.783Z,35.40
2022-12-08T07:59:09.235Z,31.00
2022-12-08T08:01:37.467Z,34.70
2022-12-08T08:04:06.564Z,38.60
2022-12-08T08:06:36.974Z,35.90
2022-12-08T08:09:05.036Z,40.10
2022-12-08T08:11:33.220Z,37.90
2022-12-08T08:14:01.144Z,35.20
2022-12-08T08:16:34.925Z,40.40
2022-12-08T08:19:06.258Z,44.70
2022-12-08T08:21:45.355Z,41.20
2022-12-08T08:24:14.254Z,43.00
2022-12-08T08:26:42.332Z,48.30
2022-12-08T08:29:10.469Z,41.10
2022-12-08T08:31:38.671Z,42.00
2022-12-08T08:34:06.965Z,43.70
2022-12-08T08:36:35.667Z,45.10
2022-12-08T08:39:04.437Z,44.90
2022-12-08T08:41:32.875Z,45.10
2022-12-08T08:44:01.295Z,42.40
2022-12-08T08:46:29.877Z,39.70
2022-12-08T08:48:58.369Z,40.80
2022-12-08T08:51:26.849Z,43.20
2022-12-08T08:53:55.069Z,46.90
2022-12-08T08:56:23.301Z,46.20
2022-12-08T08:58:53.320Z,46.60
2022-12-08T09:01:24.999Z,45.10
2022-12-08T09:03:54.317Z,43.20
2022-12-08T09:06:23.629Z,46.10
2022-12-08T09:08:52.326Z,40.10
2022-12-08T09:11:20.799Z,43.40
2022-12-08T09:13:50.185Z,40.70
2022-12-08T09:16:19.217Z,40.40
2022-12-08T09:18:49.665Z,41.20
2022-12-08T09:21:23.095Z,42.80
2022-12-08T09:23:54.034Z,47.90
2022-12-08T09:26:23.329Z,43.50
2022-12-08T09:31:22.013Z,48.40
2022-12-08T09:33:54.230Z,47.40
2022-12-08T09:36:22.516Z,50.70
2022-12-08T09:38:51.882Z,54.00
2022-12-08T09:41:52.256Z,55.60
2022-12-08T09:44:48.314Z,58.30
2022-12-08T09:47:24.541Z,58.00
2022-12-08T09:50:05.526Z,71.00
2022-12-08T09:52:40.204Z,60.40
2022-12-08T09:55:24.532Z,53.90
2022-12-08T09:58:02.822Z,43.20
2022-12-08T10:00:31.398Z,49.00
2022-12-08T10:03:00.408Z,42.50
2022-12-08T10:05:33.351Z,38.60
2022-12-08T10:08:21.345Z,44.50
2022-12-08T10:11:00.298Z,46.70
2022-12-08T10:13:46.888Z,40.30
2022-12-08T10:16:39.494Z,43.60
2022-12-08T10:19:27.829Z,43.80
2022-12-08T10:22:01.947Z,42.40
2022-12-08T10:24:54.190Z,43.10
2022-12-08T10:27:42.116Z,42.80
2022-12-08T10:30:21.356Z,41.70
2022-12-08T10:32:54.259Z,48.60
2022-12-08T10:35:30.272Z,43.90
2022-12-08T10:38:09.150Z,39.00
2022-12-08T10:40:53.493Z,41.10
2022-12-08T10:43:31.299Z,36.30
2022-12-08T10:46:23.298Z,41.20
2022-12-08T10:49:17.925Z,43.00
2022-12-08T10:51:53.958Z,41.10
2022-12-08T10:54:33.498Z,40.80
2022-12-08T10:57:01.936Z,37.30
2022-12-08T10:59:34.421Z,43.40
2022-12-08T11:02:21.834Z,36.60
2022-12-08T11:05:01.407Z,38.80
2022-12-08T11:07:29.850Z,52.50
2022-12-08T11:09:59.234Z,47.70
2022-12-08T11:12:30.894Z,44.00
2022-12-08T11:15:03.597Z,38.60
2022-12-08T11:17:41.703Z,39.40
2022-12-08T11:20:09.934Z,41.80
2022-12-08T11:22:37.998Z,46.40
2022-12-08T11:25:12.211Z,45.30
2022-12-08T11:27:44.624Z,49.00
2022-12-08T11:30:24.538Z,47.10
2022-12-08T11:33:01.082Z,51.50
2022-12-08T11:35:35.464Z,43.10
2022-12-08T11:38:20.908Z,52.80
2022-12-08T11:41:14.211Z,43.30
2022-12-08T11:44:06.320Z,49.60
2022-12-08T11:46:47.739Z,47.30
2022-12-08T11:49:15.968Z,45.50
2022-12-08T11:51:57.044Z,43.40
2022-12-08T11:54:34.531Z,51.70
2022-12-08T11:57:05.946Z,47.20
2022-12-08T11:59:41.868Z,41.80
2022-12-08T12:02:17.572Z,48.60
2022-12-08T12:04:49.359Z,41.00
2022-12-08T12:07:42.969Z,46.40
2022-12-08T12:10:35.773Z,42.40
2022-12-08T12:13:08.008Z,49.30
2022-12-08T12:16:14.690Z,48.30
2022-12-08T12:18:48.036Z,45.70
2022-12-08T12:21:20.674Z,51.90
2022-12-08T12:24:26.017Z,58.60
2022-12-08T12:27:13.814Z,46.10
2022-12-08T12:29:50.926Z,42.30
2022-12-08T12:32:24.585Z,47.30
2022-12-08T12:34:59.031Z,42.30
2022-12-08T12:37:38.899Z,43.20
2022-12-08T12:40:17.921Z,42.20
2022-12-08T12:43:11.978Z,50.00
2022-12-08T12:45:44.030Z,44.70
2022-12-08T12:48:30.148Z,46.50
2022-12-08T12:50:58.364Z,48.20
2022-12-08T12:53:26.546Z,43.60
2022-12-08T12:55:59.720Z,43.00
2022-12-08T12:58:28.318Z,47.40
2022-12-08T13:01:13.044Z,40.50
2022-12-08T13:03:45.974Z,44.70
2022-12-08T13:06:21.849Z,47.90
2022-12-08T13:08:53.192Z,38.70
2022-12-08T13:11:22.942Z,41.10
2022-12-08T13:14:00.284Z,41.30
2022-12-08T13:16:33.058Z,34.80
2022-12-08T13:19:05.102Z,40.60
2022-12-08T13:21:36.329Z,35.20
2022-12-08T13:24:10.860Z,31.30
2022-12-08T13:26:46.912Z,37.10
2022-12-08T13:29:24.514Z,35.40
2022-12-08T13:31:56.571Z,35.90
2022-12-08T13:34:49.442Z,35.80
2022-12-08T13:37:26.003Z,32.70
2022-12-08T13:40:09.709Z,28.80
2022-12-08T13:43:19.823Z,38.50
2022-12-08T13:46:52.559Z,40.70
2022-12-08T13:53:41.703Z,36.10
2022-12-08T13:57:37.465Z,34.70
2022-12-08T14:00:15.040Z,33.60
2022-12-08T14:02:48.407Z,36.20
2022-12-08T14:05:21.734Z,42.50
2022-12-08T14:07:56.799Z,38.30
2022-12-08T14:10:32.335Z,39.20
2022-12-08T14:13:06.693Z,40.10
2022-12-08T14:15:38.333Z,43.10
2022-12-08T14:18:23.840Z,40.60
2022-12-08T14:21:20.817Z,35.50
2022-12-08T14:23:49.678Z,35.30
2022-12-08T14:26:18.152Z,35.10
2022-12-08T14:28:46.364Z,37.70
2022-12-08T14:31:14.841Z,43.70
2022-12-08T14:33:43.344Z,43.30
2022-12-08T14:36:15.870Z,39.80
2022-12-08T14:38:45.673Z,40.60
2022-12-08T14:41:14.677Z,52.70
2022-12-08T14:43:43.250Z,49.50
2022-12-08T14:46:22.958Z,53.80
2022-12-08T14:48:51.501Z,48.40
2022-12-08T14:51:19.492Z,58.00
2022-12-08T14:53:53.626Z,54.10
2022-12-08T14:56:21.753Z,50.60
2022-12-08T14:59:03.195Z,41.60
2022-12-08T15:01:32.598Z,39.50
2022-12-08T15:04:07.636Z,40.40
2022-12-08T15:06:36.310Z,43.70
2022-12-08T15:09:17.457Z,47.40
2022-12-08T15:11:45.508Z,43.00
2022-12-08T15:14:33.346Z,45.90
2022-12-08T15:17:01.628Z,47.00
2022-12-08T15:19:34.711Z,46.50
2022-12-08T15:22:18.042Z,45.60
2022-12-08T15:24:46.027Z,47.40
2022-12-08T15:27:23.205Z,48.20
2022-12-08T15:29:52.598Z,51.20
2022-12-08T18:37:00.947Z,25.10
2022-12-08T18:39:32.108Z,23.80
2022-12-08T18:42:02.713Z,27.90
2022-12-08T18:44:30.889Z,31.10
2022-12-08T18:46:59.532Z,32.00
2022-12-08T18:49:27.861Z,35.10
2022-12-08T18:51:55.902Z,35.90
2022-12-08T18:54:37.052Z,25.80
2022-12-08T18:57:13.435Z,38.30
2022-12-08T18:59:42.375Z,38.30
2022-12-08T19:02:12.519Z,35.30
2022-12-08T19:04:43.935Z,32.80
2022-12-08T19:07:13.430Z,41.50
2022-12-08T19:09:42.196Z,39.40
2022-12-08T19:12:13.054Z,41.60
2022-12-08T19:14:41.582Z,41.20
2022-12-08T19:17:09.882Z,43.60
2022-12-08T19:19:37.845Z,41.70
2022-12-08T19:22:06.063Z,36.80
2022-12-08T19:24:36.630Z,36.10
2022-12-08T19:27:05.897Z,36.70
2022-12-08T19:32:05.279Z,32.50
2022-12-08T19:34:33.371Z,33.60
2022-12-08T19:37:01.269Z,37.60
2022-12-08T19:39:47.800Z,37.20
2022-12-08T19:42:37.466Z,40.90
2022-12-08T19:45:12.325Z,41.90
2022-12-08T19:47:41.092Z,39.80
2022-12-08T19:50:29.944Z,41.00
2022-12-08T19:52:58.645Z,39.80
2022-12-08T19:55:27.438Z,40.10
2022-12-08T19:57:57.065Z,40.80
2022-12-08T20:00:25.720Z,38.60
2022-12-08T20:02:53.879Z,45.00
2022-12-08T20:05:22.593Z,42.50
2022-12-08T20:07:50.818Z,39.40
2022-12-08T20:10:22.933Z,35.60
2022-12-08T20:12:51.203Z,35.40
2022-12-08T20:15:20.284Z,43.60
2022-12-08T20:17:48.397Z,55.20
2022-12-08T20:20:16.561Z,56.20
2022-12-08T20:22:45.702Z,43.70
2022-12-08T20:25:14.096Z,42.00
2022-12-08T20:27:42.733Z,37.40
2022-12-08T20:30:16.732Z,36.80
2022-12-08T20:32:46.133Z,34.70
2022-12-08T20:35:15.709Z,33.30
2022-12-08T20:37:43.978Z,40.70
2022-12-08T20:40:12.687Z,36.50
2022-12-08T20:42:40.898Z,39.50
2022-12-08T20:45:09.903Z,37.20
2022-12-08T20:47:38.325Z,41.90
2022-12-08T20:50:07.743Z,37.40
2022-12-08T20:52:37.966Z,35.30
2022-12-08T20:55:07.532Z,35.60
2022-12-08T20:57:35.828Z,36.70
2022-12-08T21:00:06.299Z,30.10
2022-12-08T21:02:35.428Z,31.10
2022-12-08T21:05:04.321Z,32.30
2022-12-08T21:07:33.765Z,27.40
2022-12-08T21:10:04.159Z,22.70
2022-12-08T21:12:32.818Z,24.10
2022-12-08T21:15:01.593Z,25.10
2022-12-08T21:17:29.909Z,26.70
2022-12-08T21:19:59.284Z,28.70
2022-12-08T21:22:28.664Z,30.90
2022-12-08T21:24:57.252Z,27.70
2022-12-08T21:27:25.761Z,28.80
2022-12-08T21:29:53.883Z,23.50
2022-12-08T21:32:27.091Z,28.30
2022-12-08T21:34:58.679Z,28.80
2022-12-08T21:37:27.101Z,31.80
2022-12-08T21:39:55.340Z,25.20
2022-12-08T21:42:41.882Z,40.50
2022-12-08T21:45:11.881Z,46.10
2022-12-08T21:47:40.879Z,41.60
2022-12-08T21:50:10.519Z,48.40
2022-12-08T21:52:41.161Z,42.60
2022-12-08T21:55:12.565Z,39.70
2022-12-08T21:57:40.971Z,35.40
2022-12-08T22:00:14.726Z,32.20
2022-12-08T22:02:43.818Z,35.40
2022-12-08T22:05:13.066Z,35.20
2022-12-08T22:07:41.967Z,38.90
2022-12-08T22:10:10.829Z,37.50
2022-12-08T22:12:39.569Z,39.90
2022-12-08T22:15:10.186Z,39.20
2022-12-08T22:17:40.688Z,36.70
2022-12-08T22:20:12.900Z,33.70
2022-12-08T22:22:41.393Z,32.20
2022-12-08T22:25:13.691Z,34.10
2022-12-08T22:27:42.666Z,29.70
2022-12-08T22:30:12.194Z,38.70
2022-12-08T22:32:42.382Z,43.20
2022-12-08T22:35:11.388Z,37.70
2022-12-08T22:37:39.431Z,37.30
2022-12-08T22:40:08.832Z,38.50
2022-12-08T22:42:37.470Z,28.20
2022-12-08T22:45:06.482Z,35.30
2022-12-08T22:50:05.016Z,34.40
2022-12-08T22:52:33.296Z,35.00
2022-12-08T22:55:01.308Z,35.00
2022-12-08T22:57:29.630Z,33.00
2022-12-08T22:59:57.803Z,33.70
2022-12-08T23:02:26.080Z,34.00
2022-12-08T23:04:57.584Z,37.60
2022-12-08T23:07:26.823Z,37.50
2022-12-08T23:09:55.068Z,38.60
2022-12-08T23:12:23.184Z,37.90
2022-12-08T23:14:51.345Z,34.90
2022-12-08T23:17:19.664Z,37.70
2022-12-08T23:19:47.925Z,33.60
2022-12-08T23:22:16.774Z,34.80
2022-12-08T23:24:44.796Z,31.10
2022-12-08T23:27:13.264Z,35.00
2022-12-08T23:29:41.351Z,41.60
2022-12-08T23:32:09.714Z,34.00
2022-12-08T23:34:37.975Z,35.00
2022-12-08T23:37:06.414Z,36.70
2022-12-08T23:39:34.805Z,39.80
2022-12-08T23:42:03.181Z,36.30
2022-12-08T23:44:31.549Z,38.20
2022-12-08T23:47:00.112Z,43.30
2022-12-08T23:49:28.377Z,33.80
2022-12-08T23:51:56.797Z,34.80
2022-12-08T23:54:24.813Z,36.20
2022-12-08T23:56:53.103Z,35.60
2022-12-08T23:59:21.287Z,43.00
